createdAt,value
2019-03-01T00:02:13.079Z,17.07
2019-03-01T00:07:44.403Z,18.37
2019-03-01T00:13:01.550Z,17.97
2019-03-01T00:18:17.575Z,17.97
2019-03-01T00:23:35.051Z,19.73
2019-03-01T00:28:38.794Z,17.97
2019-03-01T00:33:54.845Z,21.27
2019-03-01T00:39:09.526Z,20.50
2019-03-01T00:44:07.180Z,19.13
2019-03-01T00:49:01.050Z,18.90
2019-03-01T00:53:54.984Z,21.23
2019-03-01T00:58:48.942Z,17.63
2019-03-01T01:03:42.795Z,18.90
2019-03-01T01:08:36.639Z,26.23
2019-03-01T01:13:30.518Z,26.60
2019-03-01T01:18:24.358Z,20.50
2019-03-01T01:23:18.361Z,21.77
2019-03-01T01:28:12.200Z,23.77
2019-03-01T01:33:06.054Z,22.57
2019-03-01T01:37:59.944Z,21.60
2019-03-01T01:42:54.015Z,19.93
2019-03-01T01:47:47.859Z,25.27
2019-03-01T01:52:41.951Z,21.90
2019-03-01T01:57:35.814Z,20.40
2019-03-01T02:02:29.676Z,24.37
2019-03-01T02:07:23.621Z,26.13
2019-03-01T02:12:17.694Z,21.63
2019-03-01T02:17:11.548Z,32.03
2019-03-01T02:22:05.395Z,22.90
2019-03-01T02:27:19.069Z,23.87
2019-03-01T02:32:12.922Z,19.97
2019-03-01T02:37:06.857Z,23.77
2019-03-01T02:42:00.721Z,24.23
2019-03-01T02:46:56.466Z,23.43
2019-03-01T02:51:50.328Z,24.37
2019-03-01T02:56:44.181Z,23.77
2019-03-01T03:01:38.145Z,23.23
2019-03-01T03:06:36.456Z,24.47
2019-03-01T03:11:30.414Z,27.30
2019-03-01T03:16:24.490Z,32.03
2019-03-01T03:21:18.449Z,28.60
2019-03-01T03:26:12.311Z,27.30
2019-03-01T03:31:06.196Z,29.80
2019-03-01T03:36:00.067Z,24.57
2019-03-01T03:40:53.952Z,30.53
2019-03-01T03:45:47.807Z,30.57
2019-03-01T03:50:41.774Z,29.87
2019-03-01T03:55:35.743Z,31.07
2019-03-01T04:00:29.713Z,30.37
2019-03-01T04:05:23.560Z,26.07
2019-03-01T04:10:17.587Z,28.07
2019-03-01T04:15:14.357Z,28.97
2019-03-01T04:20:11.392Z,30.83
2019-03-01T04:25:05.237Z,36.20
2019-03-01T04:30:00.030Z,34.30
2019-03-01T04:34:53.977Z,29.97
2019-03-01T04:39:47.958Z,26.17
2019-03-01T04:44:41.832Z,24.67
2019-03-01T04:49:35.767Z,29.77
2019-03-01T04:54:29.634Z,26.63
2019-03-01T04:59:23.476Z,23.57
2019-03-01T05:04:17.320Z,25.00
2019-03-01T05:09:11.200Z,24.37
2019-03-01T05:14:05.157Z,29.07
2019-03-01T05:18:59.023Z,22.73
2019-03-01T05:23:52.852Z,29.73
2019-03-01T05:28:46.711Z,26.90
2019-03-01T05:33:40.571Z,27.73
2019-03-01T05:38:34.450Z,35.63
2019-03-01T05:43:28.306Z,30.00
2019-03-01T05:48:22.164Z,34.83
2019-03-01T05:53:16.006Z,36.57
2019-03-01T05:58:27.578Z,36.93
2019-03-01T06:03:51.406Z,38.43
2019-03-01T06:08:51.988Z,42.63
2019-03-01T06:13:52.681Z,39.17
2019-03-01T06:19:07.014Z,36.53
2019-03-01T06:24:04.705Z,37.67
2019-03-01T06:29:05.113Z,36.97
2019-03-01T06:34:22.600Z,35.50
2019-03-01T06:39:44.141Z,37.40
2019-03-01T06:44:59.972Z,37.10
2019-03-01T06:50:06.443Z,44.57
2019-03-01T06:55:00.330Z,62.60
2019-03-01T06:59:54.206Z,63.00
2019-03-01T07:04:48.173Z,80.60
2019-03-01T07:09:42.588Z,83.40
2019-03-01T07:14:36.663Z,121.13
2019-03-01T07:19:30.519Z,139.23
2019-03-01T07:24:24.466Z,157.13
2019-03-01T07:29:18.463Z,159.43
2019-03-01T07:34:12.328Z,148.50
2019-03-01T07:39:07.918Z,166.17
2019-03-01T07:44:03.838Z,170.10
2019-03-01T07:48:57.772Z,168.50
2019-03-01T07:53:51.643Z,156.63
2019-03-01T07:58:45.616Z,155.63
2019-03-01T08:03:39.475Z,167.70
2019-03-01T08:08:34.903Z,156.13
2019-03-01T08:13:29.164Z,162.83
2019-03-01T08:18:23.081Z,162.57
2019-03-01T08:23:17.037Z,185.27
2019-03-01T08:28:11.032Z,186.67
2019-03-01T08:33:06.777Z,186.83
2019-03-01T08:38:00.832Z,198.10
2019-03-01T08:42:54.807Z,164.10
2019-03-01T08:47:49.170Z,167.63
2019-03-01T08:52:44.137Z,150.83
2019-03-01T08:57:44.327Z,150.93
2019-03-01T09:02:33.770Z,164.20
2019-03-01T09:07:30.234Z,160.47
2019-03-01T09:12:23.427Z,185.90
2019-03-01T09:17:17.296Z,188.00
2019-03-01T09:22:11.163Z,196.93
2019-03-01T09:27:05.122Z,210.77
2019-03-01T09:31:59.135Z,201.03
2019-03-01T09:36:54.868Z,196.47
2019-03-01T09:41:48.878Z,183.30
2019-03-01T09:46:42.756Z,174.20
2019-03-01T09:51:36.634Z,159.70
2019-03-01T09:56:30.492Z,174.80
2019-03-01T10:01:24.445Z,196.57
2019-03-01T10:06:18.313Z,173.97
2019-03-01T10:11:12.189Z,170.17
2019-03-01T10:16:06.084Z,170.97
2019-03-01T10:20:59.969Z,164.10
2019-03-01T10:25:53.836Z,170.53
2019-03-01T10:30:47.742Z,168.97
2019-03-01T10:35:41.640Z,161.63
2019-03-01T10:40:35.537Z,162.57
2019-03-01T10:45:30.318Z,159.77
2019-03-01T10:50:24.160Z,143.80
2019-03-01T10:55:19.025Z,142.40
2019-03-01T11:00:29.186Z,131.93
2019-03-01T11:05:23.976Z,136.73
2019-03-01T11:10:21.640Z,128.27
2019-03-01T11:15:15.603Z,120.83
2019-03-01T11:20:12.065Z,125.27
2019-03-01T11:25:09.251Z,139.03
2019-03-01T11:30:09.789Z,139.60
2019-03-01T11:35:04.387Z,132.13
2019-03-01T11:39:58.444Z,150.13
2019-03-01T11:44:52.363Z,150.17
2019-03-01T11:49:46.206Z,164.70
2019-03-01T11:54:40.072Z,154.77
2019-03-01T11:59:33.922Z,138.57
2019-03-01T12:04:27.806Z,140.43
2019-03-01T12:09:21.686Z,134.07
2019-03-01T12:14:17.470Z,123.93
2019-03-01T12:19:12.994Z,121.60
2019-03-01T12:24:07.049Z,104.00
2019-03-01T12:29:01.130Z,101.33
2019-03-01T12:33:55.084Z,104.03
2019-03-01T12:38:48.969Z,95.90
2019-03-01T12:43:42.867Z,93.43
2019-03-01T12:48:36.704Z,101.53
2019-03-01T12:53:30.675Z,97.27
2019-03-01T12:58:24.530Z,87.50
2019-03-01T13:03:18.409Z,82.50
2019-03-01T13:08:15.719Z,79.30
2019-03-01T13:13:08.743Z,71.00
2019-03-01T13:18:03.598Z,60.67
2019-03-01T13:23:01.047Z,39.17
2019-03-01T13:27:53.705Z,35.30
2019-03-01T13:32:47.865Z,36.97
2019-03-01T13:37:41.740Z,53.30
2019-03-01T13:42:35.604Z,64.07
2019-03-01T13:47:29.483Z,70.93
2019-03-01T13:52:26.771Z,102.33
2019-03-01T13:57:19.224Z,101.90
2019-03-01T14:02:13.226Z,94.17
2019-03-01T14:07:07.095Z,104.63
2019-03-01T14:12:00.957Z,77.77
2019-03-01T14:16:54.780Z,88.53
2019-03-01T14:21:48.657Z,99.57
2019-03-01T14:26:42.530Z,103.27
2019-03-01T14:31:36.416Z,121.97
2019-03-01T14:36:30.496Z,123.50
2019-03-01T14:41:24.613Z,106.47
2019-03-01T14:46:20.717Z,114.87
2019-03-01T14:51:14.378Z,103.37
2019-03-01T14:56:18.229Z,94.17
2019-03-01T15:01:23.291Z,94.17
2019-03-01T15:06:19.242Z,99.63
2019-03-01T15:11:13.799Z,133.93
2019-03-01T15:16:08.090Z,93.00
2019-03-01T15:21:02.827Z,83.97
2019-03-01T15:25:56.796Z,73.93
2019-03-01T15:30:50.864Z,59.33
2019-03-01T15:35:44.962Z,62.23
2019-03-01T15:40:38.890Z,43.03
2019-03-01T15:45:32.885Z,48.23
2019-03-01T15:50:27.349Z,41.40
2019-03-01T15:55:22.133Z,45.03
2019-03-01T16:00:17.522Z,42.23
2019-03-01T16:05:12.717Z,42.37
2019-03-01T16:10:17.164Z,41.80
2019-03-01T16:15:13.451Z,40.23
2019-03-01T16:20:17.824Z,35.60
2019-03-01T16:25:13.575Z,41.17
2019-03-01T16:30:10.865Z,44.10
2019-03-01T16:35:07.246Z,37.83
2019-03-01T16:40:01.636Z,42.33
2019-03-01T16:44:55.759Z,42.73
2019-03-01T16:49:49.622Z,35.27
2019-03-01T16:54:43.515Z,36.37
2019-03-01T16:59:39.550Z,42.53
2019-03-01T17:04:33.278Z,39.37
2019-03-01T17:09:27.209Z,45.07
2019-03-01T17:14:21.112Z,44.20
2019-03-01T17:19:15.092Z,44.93
2019-03-01T17:24:08.957Z,42.97
2019-03-01T17:29:04.100Z,41.17
2019-03-01T17:33:58.243Z,35.50
2019-03-01T17:38:52.228Z,43.60
2019-03-01T17:43:46.135Z,36.80
2019-03-01T17:48:40.151Z,39.60
2019-03-01T17:53:34.027Z,33.63
2019-03-01T17:58:28.070Z,34.27
2019-03-01T18:03:22.079Z,25.83
2019-03-01T18:08:15.958Z,30.20
2019-03-01T18:13:09.910Z,30.10
2019-03-01T18:18:03.891Z,31.73
2019-03-01T18:22:59.378Z,25.33
2019-03-01T18:27:53.910Z,21.63
2019-03-01T18:32:48.016Z,24.17
2019-03-01T18:37:41.934Z,27.70
2019-03-01T18:42:38.078Z,25.57
2019-03-01T18:47:31.902Z,21.67
2019-03-01T18:52:25.801Z,21.60
2019-03-01T19:01:51.377Z,21.50
2019-03-01T19:06:48.407Z,25.13
2019-03-01T19:11:41.294Z,27.17
2019-03-01T19:16:35.288Z,24.27
2019-03-01T19:21:29.338Z,22.73
2019-03-01T19:26:23.195Z,24.43
2019-03-01T19:31:17.190Z,23.07
2019-03-01T19:36:11.221Z,25.30
2019-03-01T19:41:05.251Z,24.17
2019-03-01T19:45:59.235Z,24.03
2019-03-01T19:50:53.229Z,24.93
2019-03-01T20:00:59.933Z,25.57
2019-03-01T20:05:53.795Z,22.27
2019-03-01T20:10:50.943Z,25.20
2019-03-01T20:15:46.258Z,24.20
2019-03-01T20:20:39.989Z,25.77
2019-03-01T20:25:33.855Z,28.33
2019-03-01T20:30:31.887Z,33.20
2019-03-01T20:35:26.262Z,31.00
2019-03-01T20:40:22.829Z,34.23
2019-03-01T20:45:32.321Z,32.07
2019-03-01T20:50:26.431Z,40.10
2019-03-01T20:55:20.565Z,41.97
2019-03-01T21:00:16.315Z,42.17
2019-03-01T21:05:11.772Z,39.00
2019-03-01T21:10:15.986Z,38.67
2019-03-01T21:15:12.686Z,36.50
2019-03-01T21:20:09.728Z,33.40
2019-03-01T21:25:10.086Z,32.20
2019-03-01T21:30:10.272Z,28.13
2019-03-01T21:35:06.100Z,31.50
2019-03-01T21:40:00.661Z,29.40
2019-03-01T21:44:54.679Z,32.17
2019-03-01T21:49:48.685Z,33.27
2019-03-01T21:54:42.598Z,32.17
2019-03-01T21:59:36.574Z,28.37
2019-03-01T22:04:30.401Z,29.63
2019-03-01T22:09:25.428Z,27.20
2019-03-01T22:14:19.431Z,24.27
2019-03-01T22:19:13.408Z,25.10
2019-03-01T22:24:07.356Z,31.13
2019-03-01T22:29:01.497Z,26.73
2019-03-01T22:33:55.871Z,27.27
2019-03-01T22:38:50.754Z,28.00
2019-03-01T22:43:44.684Z,42.63
2019-03-01T22:48:46.754Z,29.17
2019-03-01T22:53:34.766Z,36.97
2019-03-01T22:58:28.696Z,36.87
2019-03-01T23:03:22.573Z,36.00
2019-03-01T23:08:16.729Z,34.67
2019-03-01T23:13:10.729Z,34.60
2019-03-01T23:18:05.731Z,28.13
2019-03-01T23:23:00.450Z,31.43
2019-03-01T23:27:54.445Z,30.70
2019-03-01T23:32:48.783Z,33.10
2019-03-01T23:37:44.092Z,29.90
2019-03-01T23:42:38.077Z,33.47
2019-03-01T23:47:34.659Z,27.30
2019-03-01T23:52:27.873Z,28.43
2019-03-01T23:57:21.757Z,31.03
